Time;durP1;ratioP1;P1;durP2;ratioP2;P2;SDS_P1;SDS_P2;PMS_P1;PMS_P2;Temp;Humidity;BMP_temperature;BMP_pressure;BME280_temperature;BME280_humidity;BME280_pressure;Samples;Min_cycle;Max_cycle;Signal;HPM_P1;HPM_P2
2023/09/05 00:00:44;;;;;;;3.95;1.98;;;15.40;99.90;15.30;101624.00;;;;5032120;27;88840;-65
2023/09/05 00:03:13;;;;;;;2.75;1.77;;;15.30;99.90;15.20;101632.00;;;;5026264;27;108195;-65
2023/09/05 00:05:39;;;;;;;2.50;2.30;;;15.20;99.90;15.20;101626.00;;;;5026581;27;91357;-65
2023/09/05 00:08:05;;;;;;;2.85;1.88;;;15.20;99.90;15.10;101620.00;;;;5027176;27;118065;-65
2023/09/05 00:10:30;;;;;;;3.63;1.95;;;15.10;99.90;15.00;101620.00;;;;5029807;27;98805;-67
2023/09/05 00:12:56;;;;;;;2.38;2.17;;;15.00;99.90;15.00;101614.00;;;;5028040;27;87749;-65
2023/09/05 00:15:22;;;;;;;1.55;1.35;;;15.00;99.90;15.00;101613.00;;;;5025080;27;120049;-64
2023/09/05 00:17:47;;;;;;;2.33;2.13;;;14.90;99.90;14.90;101625.00;;;;5025904;27;89193;-64
2023/09/05 00:20:15;;;;;;;3.28;2.15;;;14.90;99.90;14.90;101619.00;;;;5032784;27;110223;-64
2023/09/05 00:22:42;;;;;;;1.90;1.58;;;14.90;99.90;14.90;101603.00;;;;5025654;27;87967;-65
2023/09/05 00:25:11;;;;;;;2.50;2.30;;;14.80;99.90;14.90;101612.00;;;;5026450;27;90073;-66
2023/09/05 00:27:39;;;;;;;2.03;1.83;;;14.80;99.90;14.90;101618.00;;;;5030714;27;89795;-66
2023/09/05 00:30:05;;;;;;;2.25;1.30;;;14.80;99.90;14.90;101615.00;;;;5031223;27;87750;-65
2023/09/05 00:32:32;;;;;;;1.73;1.42;;;14.80;99.90;14.90;101617.00;;;;5026983;27;87930;-65
2023/09/05 00:34:58;;;;;;;3.35;1.67;;;14.80;99.90;14.80;101618.00;;;;5027990;27;88831;-65
2023/09/05 00:37:24;;;;;;;1.67;1.45;;;14.80;99.90;14.80;101613.00;;;;5025726;27;116800;-65
2023/09/05 00:39:50;;;;;;;2.20;1.77;;;14.80;99.90;14.80;101607.00;;;;5025319;27;110147;-65
2023/09/05 00:42:16;;;;;;;2.17;1.70;;;14.80;99.90;14.80;101608.00;;;;5028285;27;88618;-65
2023/09/05 00:44:43;;;;;;;2.28;2.10;;;14.80;99.90;14.80;101606.00;;;;5025557;27;89130;-65
2023/09/05 00:47:13;;;;;;;2.38;1.55;;;14.80;99.90;14.80;101603.00;;;;5022091;27;94661;-65
2023/09/05 00:49:41;;;;;;;3.50;1.58;;;14.80;99.90;14.80;101601.00;;;;5026053;27;88888;-65
2023/09/05 00:52:08;;;;;;;2.23;1.27;;;14.70;99.90;14.80;101599.00;;;;5026545;27;87591;-65
2023/09/05 00:54:36;;;;;;;2.77;2.03;;;13.70;99.90;14.70;101596.00;;;;5011055;27;88436;-65
2023/09/05 00:57:02;;;;;;;2.90;1.75;;;14.70;99.90;14.70;101596.00;;;;5030438;27;88406;-65
2023/09/05 00:59:28;;;;;;;4.22;1.75;;;14.70;99.90;14.70;101588.00;;;;5031541;27;94258;-65
2023/09/05 01:01:56;;;;;;;1.88;1.63;;;14.60;99.90;14.70;101596.00;;;;5027255;27;108316;-66
2023/09/05 01:04:24;;;;;;;4.18;2.47;;;14.60;99.90;14.60;101591.00;;;;5028526;27;99661;-65
2023/09/05 01:07:04;;;;;;;1.53;1.43;;;14.60;99.90;14.60;101588.00;;;;5031872;27;87186;-65
2023/09/05 01:10:03;;;;;;;1.60;1.45;;;14.60;99.90;14.60;101604.00;;;;5012292;27;87838;-65
2023/09/05 01:12:29;;;;;;;2.45;1.67;;;14.50;99.90;14.50;101585.00;;;;5009595;27;102878;-65
2023/09/05 01:14:54;;;;;;;2.00;1.80;;;14.50;99.90;14.50;101595.00;;;;5012781;27;118469;-65
2023/09/05 01:17:20;;;;;;;3.15;2.22;;;14.50;99.90;14.50;101584.00;;;;5026011;27;117805;-65
2023/09/05 01:19:48;;;;;;;2.07;1.67;;;14.50;99.90;14.50;101579.00;;;;5026268;27;88081;-64
2023/09/05 01:22:49;;;;;;;1.73;1.50;;;14.50;99.90;14.50;101600.00;;;;5018984;27;87787;-66
2023/09/05 01:25:16;;;;;;;1.85;1.48;;;14.50;99.90;14.50;101593.00;;;;5018644;27;88357;-66
2023/09/05 01:27:42;;;;;;;1.60;1.35;;;14.40;99.90;14.50;101586.00;;;;5010292;27;116956;-65
2023/09/05 01:30:09;;;;;;;1.95;1.58;;;14.40;99.90;14.50;101587.00;;;;5031023;27;108611;-65
2023/09/05 01:32:34;;;;;;;1.55;1.45;;;14.40;99.90;14.50;101587.00;;;;5010846;27;87157;-66
2023/09/05 01:35:00;;;;;;;2.03;1.80;;;14.40;99.90;14.40;101590.00;;;;5030222;27;117887;-65
2023/09/05 01:37:26;;;;;;;2.13;1.48;;;14.40;99.90;14.40;101595.00;;;;5026889;27;117441;-65
2023/09/05 01:39:51;;;;;;;1.57;1.47;;;14.40;99.90;14.40;101578.00;;;;5026203;27;110389;-65
2023/09/05 01:42:17;;;;;;;1.90;1.80;;;14.40;99.90;14.30;101578.00;;;;5024317;27;108833;-64
2023/09/05 01:44:43;;;;;;;1.80;1.63;;;14.40;99.90;14.30;101566.00;;;;5029123;27;116327;-64
2023/09/05 01:47:08;;;;;;;3.97;2.80;;;14.30;99.90;14.30;101576.00;;;;5029004;27;115279;-66
2023/09/05 01:49:34;;;;;;;2.40;1.40;;;14.30;99.90;14.30;101575.00;;;;5029467;27;109733;-65
2023/09/05 01:52:00;;;;;;;4.23;1.67;;;14.20;99.90;14.20;101571.00;;;;5027319;27;108854;-65
2023/09/05 01:54:26;;;;;;;2.40;1.58;;;14.20;99.90;14.20;101564.00;;;;5028678;27;116461;-64
2023/09/05 01:56:51;;;;;;;2.00;1.67;;;14.20;99.90;14.20;101570.00;;;;5027656;27;88770;-66
2023/09/05 01:59:19;;;;;;;1.93;1.50;;;14.20;99.90;14.20;101571.00;;;;5024643;27;96849;-65
2023/09/05 02:01:46;;;;;;;2.07;1.67;;;14.20;99.90;14.10;101565.00;;;;5027262;27;87707;-65
2023/09/05 02:04:11;;;;;;;2.00;1.83;;;14.10;99.90;14.10;101563.00;;;;5019270;27;89626;-65
2023/09/05 02:06:40;;;;;;;5.80;1.87;;;14.10;99.90;14.10;101562.00;;;;5027058;27;111790;-65
2023/09/05 02:09:06;;;;;;;1.63;1.53;;;14.10;99.90;14.10;101562.00;;;;5027309;27;87582;-65
2023/09/05 02:11:32;;;;;;;2.30;1.43;;;14.10;99.90;14.10;101565.00;;;;5024345;27;89763;-66
2023/09/05 02:13:57;;;;;;;2.57;1.43;;;14.10;99.90;14.00;101554.00;;;;5028960;27;117557;-66
2023/09/05 02:16:23;;;;;;;1.47;1.37;;;14.00;99.90;14.00;101543.00;;;;5026357;27;88172;-66
2023/09/05 02:18:49;;;;;;;2.53;1.43;;;14.00;99.90;14.00;101547.00;;;;5025593;27;87889;-66
2023/09/05 02:21:16;;;;;;;2.07;1.47;;;14.00;99.90;14.00;101547.00;;;;5029512;27;108988;-66
2023/09/05 02:23:42;;;;;;;1.57;1.40;;;14.00;99.90;14.00;101543.00;;;;5026590;27;88231;-66
2023/09/05 02:26:08;;;;;;;1.73;1.60;;;14.00;99.90;14.00;101549.00;;;;5025760;27;88133;-66
2023/09/05 02:28:33;;;;;;;4.10;2.03;;;14.00;99.90;14.00;101543.00;;;;5024045;27;88724;-64
2023/09/05 02:31:07;;;;;;;2.50;1.77;;;14.00;99.90;13.90;101551.00;;;;5024166;27;87800;-64
2023/09/05 02:33:37;;;;;;;1.90;1.77;;;13.90;99.90;13.90;101545.00;;;;5026088;27;87974;-64
2023/09/05 02:36:17;;;;;;;1.70;1.40;;;13.90;99.90;13.90;101543.00;;;;5024794;27;88469;-64
2023/09/05 02:38:43;;;;;;;3.60;2.03;;;13.90;99.90;13.90;101544.00;;;;5008370;27;87848;-65
2023/09/05 02:41:13;;;;;;;2.50;2.00;;;13.90;99.90;13.80;101541.00;;;;5026256;27;87940;-64
2023/09/05 02:43:39;;;;;;;2.50;1.90;;;13.90;99.90;13.80;101546.00;;;;5025280;27;108578;-67
2023/09/05 02:46:13;;;;;;;1.70;1.60;;;13.90;99.90;13.80;101551.00;;;;5029224;27;87841;-64
2023/09/05 02:48:42;;;;;;;2.20;1.60;;;13.80;99.90;13.80;101540.00;;;;5023514;27;110778;-65
2023/09/05 02:51:11;;;;;;;1.63;1.20;;;13.80;99.90;13.80;101540.00;;;;5025845;27;87683;-65
2023/09/05 02:53:47;;;;;;;2.20;1.73;;;13.80;99.90;13.70;101541.00;;;;5029325;27;89593;-66
2023/09/05 02:56:13;;;;;;;1.33;1.30;;;13.70;99.90;13.70;101535.00;;;;5027366;27;97157;-65
2023/09/05 02:58:38;;;;;;;1.83;1.63;;;13.70;99.90;13.70;101539.00;;;;5023034;27;109766;-65
2023/09/05 03:01:11;;;;;;;2.13;1.63;;;13.70;99.90;13.70;101534.00;;;;5025198;27;110022;-66
2023/09/05 03:03:36;;;;;;;1.80;1.50;;;13.70;99.90;13.60;101540.00;;;;5026250;27;88100;-65
2023/09/05 03:06:11;;;;;;;2.87;1.63;;;13.60;99.90;13.60;101529.00;;;;5024400;27;115445;-66
2023/09/05 03:08:38;;;;;;;1.60;1.50;;;13.60;99.90;13.60;101528.00;;;;5022703;27;87985;-66
2023/09/05 03:11:04;;;;;;;3.50;1.97;;;13.60;99.90;13.60;101529.00;;;;5022216;27;87108;-66
2023/09/05 03:13:30;;;;;;;3.60;2.00;;;13.60;99.90;13.50;101526.00;;;;5020957;27;118089;-66
2023/09/05 03:15:56;;;;;;;4.17;1.93;;;13.50;99.90;13.50;101528.00;;;;5022268;27;117720;-66
2023/09/05 03:18:27;;;;;;;1.53;1.43;;;13.50;99.90;13.50;101532.00;;;;5024851;27;88625;-67
2023/09/05 03:20:53;;;;;;;2.33;1.40;;;13.50;99.90;13.50;101534.00;;;;5020946;27;108676;-66
2023/09/05 03:23:19;;;;;;;1.53;1.43;;;13.50;99.90;13.40;101538.00;;;;5021882;27;117773;-66
2023/09/05 03:25:45;;;;;;;1.90;1.57;;;13.40;99.90;13.40;101534.00;;;;5028410;27;88059;-66
2023/09/05 03:28:12;;;;;;;1.43;1.33;;;13.40;99.90;13.40;101527.00;;;;5024647;27;87540;-66
2023/09/05 03:30:48;;;;;;;2.23;1.37;;;13.40;99.90;13.40;101536.00;;;;5026589;27;87771;-66
2023/09/05 03:33:14;;;;;;;1.67;1.40;;;13.40;99.90;13.30;101531.00;;;;5029064;27;97567;-66
2023/09/05 03:35:44;;;;;;;1.73;1.63;;;13.40;99.90;13.30;101519.00;;;;5026240;27;87866;-65
2023/09/05 03:38:09;;;;;;;2.03;1.93;;;13.40;99.90;13.30;101514.00;;;;5032436;27;87989;-64
2023/09/05 03:40:35;;;;;;;2.70;2.10;;;13.30;99.90;13.30;101524.00;;;;5029256;27;108415;-69
2023/09/05 03:43:01;;;;;;;2.07;1.47;;;13.30;99.90;13.30;101513.00;;;;5026379;27;116970;-66
2023/09/05 03:45:30;;;;;;;1.80;1.70;;;13.30;99.90;13.20;101517.00;;;;5028063;27;107989;-66
2023/09/05 03:47:56;;;;;;;4.63;1.57;;;13.30;99.90;13.20;101515.00;;;;5025667;27;88143;-65
2023/09/05 03:50:21;;;;;;;2.13;1.50;;;13.20;99.90;13.20;101509.00;;;;5025385;27;109633;-65
2023/09/05 03:52:47;;;;;;;2.77;1.53;;;13.20;99.90;13.10;101515.00;;;;5030770;27;93580;-64
2023/09/05 03:55:13;;;;;;;3.43;1.63;;;13.20;99.90;13.10;101518.00;;;;5026463;27;106385;-64
2023/09/05 03:57:39;;;;;;;2.50;1.63;;;13.10;99.90;13.10;101511.00;;;;5028032;27;88927;-65
2023/09/05 04:00:09;;;;;;;2.50;1.73;;;13.10;99.90;13.10;101513.00;;;;5024562;27;111752;-65
2023/09/05 04:02:35;;;;;;;3.13;1.53;;;13.10;99.90;13.10;101519.00;;;;5030351;27;88951;-65
2023/09/05 04:05:01;;;;;;;4.33;2.03;;;13.10;99.90;13.00;101511.00;;;;5025743;27;88820;-65
2023/09/05 04:07:27;;;;;;;2.07;1.33;;;13.10;99.90;13.00;101516.00;;;;5025403;27;108809;-66
2023/09/05 04:09:53;;;;;;;2.17;1.40;;;13.00;99.90;13.00;101515.00;;;;5029152;27;109051;-65
2023/09/05 04:12:18;;;;;;;2.20;1.67;;;13.00;99.90;13.00;101513.00;;;;5025857;27;88834;-66
2023/09/05 04:14:44;;;;;;;2.10;1.67;;;13.00;99.90;13.00;101517.00;;;;5024816;27;117402;-65
2023/09/05 04:17:10;;;;;;;1.93;1.80;;;13.00;99.90;12.90;101507.00;;;;5027730;27;110447;-64
2023/09/05 04:19:35;;;;;;;2.83;1.93;;;13.00;99.90;12.90;101497.00;;;;5026039;27;106874;-68
2023/09/05 04:22:01;;;;;;;3.73;2.13;;;12.90;99.90;12.90;101496.00;;;;5029422;27;115866;-64
2023/09/05 04:24:27;;;;;;;2.30;2.10;;;12.90;99.90;12.90;101496.00;;;;5027028;27;101432;-66
2023/09/05 04:26:53;;;;;;;1.80;1.70;;;12.90;99.90;12.90;101501.00;;;;5021776;27;110096;-65
2023/09/05 04:29:19;;;;;;;3.40;1.77;;;12.90;99.90;12.90;101509.00;;;;5018968;27;88340;-65
2023/09/05 04:31:44;;;;;;;4.23;2.07;;;12.90;99.90;12.90;101507.00;;;;5019368;27;117875;-66
2023/09/05 04:34:10;;;;;;;3.93;1.97;;;12.90;99.90;12.80;101509.00;;;;5018699;27;118888;-65
2023/09/05 04:36:36;;;;;;;1.90;1.80;;;12.80;99.90;12.80;101510.00;;;;5020196;27;109463;-66
2023/09/05 04:39:03;;;;;;;2.40;1.77;;;12.80;99.90;12.80;101503.00;;;;5023770;27;87941;-65
2023/09/05 04:41:29;;;;;;;3.80;1.97;;;12.80;99.90;12.80;101512.00;;;;5023682;27;88052;-65
2023/09/05 04:43:55;;;;;;;1.70;1.40;;;12.80;99.90;12.80;101501.00;;;;5025057;27;118638;-65
2023/09/05 04:46:20;;;;;;;1.63;1.53;;;12.80;99.90;12.70;101488.00;;;;5023333;27;87974;-65
2023/09/05 04:48:46;;;;;;;2.20;1.40;;;12.70;99.90;12.80;101499.00;;;;5026669;27;86985;-65
2023/09/05 04:51:12;;;;;;;1.73;1.60;;;13.10;99.90;12.80;101506.00;;;;5022410;27;118547;-65
2023/09/05 04:53:37;;;;;;;2.00;1.57;;;12.80;99.90;12.90;101494.00;;;;5015314;27;88362;-65
2023/09/05 04:56:03;;;;;;;0.87;0.87;;;12.80;99.90;12.90;101494.00;;;;5028691;27;110744;-65
2023/09/05 04:58:30;;;;;;;2.27;1.73;;;12.90;99.90;13.00;101499.00;;;;5027127;27;87620;-65
2023/09/05 05:01:01;;;;;;;2.80;1.40;;;13.00;99.90;13.20;101507.00;;;;5025867;27;89568;-65
2023/09/05 05:03:28;;;;;;;1.27;1.17;;;13.10;99.90;13.30;101510.00;;;;5028796;27;87840;-66
2023/09/05 05:05:54;;;;;;;1.83;1.27;;;13.20;99.90;13.40;101515.00;;;;5027246;27;87782;-66
2023/09/05 05:08:20;;;;;;;2.27;1.80;;;13.30;99.90;13.50;101508.00;;;;5025194;27;109686;-65
2023/09/05 05:10:45;;;;;;;1.67;1.47;;;13.50;99.90;13.70;101501.00;;;;5026821;27;117041;-65
2023/09/05 05:13:11;;;;;;;1.40;1.30;;;13.60;99.90;13.80;101512.00;;;;5024152;27;87994;-66
2023/09/05 05:15:37;;;;;;;1.90;1.70;;;13.80;99.90;14.00;101508.00;;;;5022615;27;88321;-65
2023/09/05 05:18:03;;;;;;;1.40;1.30;;;13.90;99.90;14.20;101511.00;;;;5029654;27;107983;-66
2023/09/05 05:20:28;;;;;;;3.27;1.80;;;14.10;99.90;14.40;101513.00;;;;5026363;27;109329;-65
2023/09/05 05:22:54;;;;;;;4.60;2.23;;;14.30;99.90;14.60;101520.00;;;;4988207;27;1142261;-65
2023/09/05 05:25:20;;;;;;;1.60;1.50;;;14.50;99.90;14.70;101516.00;;;;5032708;27;109960;-66
2023/09/05 05:27:45;;;;;;;2.97;1.55;;;14.60;99.90;14.90;101517.00;;;;5032051;27;108740;-67
2023/09/05 05:30:12;;;;;;;1.50;1.40;;;14.80;99.90;15.10;101520.00;;;;5029632;27;116597;-65
2023/09/05 05:32:38;;;;;;;2.30;1.20;;;15.00;99.90;15.30;101515.00;;;;5036504;27;87710;-65
2023/09/05 05:35:04;;;;;;;1.58;1.30;;;15.20;99.90;15.50;101530.00;;;;5029053;27;111275;-65
2023/09/05 05:37:30;;;;;;;4.90;1.50;;;15.40;99.90;15.80;101528.00;;;;5029621;27;95952;-65
2023/09/05 05:39:55;;;;;;;1.52;1.42;;;15.60;99.90;16.00;101529.00;;;;5028700;27;88872;-64
2023/09/05 05:42:21;;;;;;;1.35;1.20;;;15.80;99.90;16.20;101524.00;;;;5027565;27;109129;-65
2023/09/05 05:44:47;;;;;;;1.38;1.27;;;16.00;99.90;16.40;101521.00;;;;5027022;27;96425;-65
2023/09/05 05:47:12;;;;;;;1.80;1.48;;;16.20;99.90;16.70;101524.00;;;;5026208;27;108841;-66
2023/09/05 05:49:38;;;;;;;1.80;1.70;;;16.50;99.90;16.90;101526.00;;;;5022832;27;117552;-65
2023/09/05 05:52:04;;;;;;;1.15;1.05;;;16.80;99.90;17.20;101527.00;;;;5028641;27;117945;-65
2023/09/05 05:54:30;;;;;;;1.83;1.17;;;17.00;99.90;17.50;101528.00;;;;5020725;27;93462;-65
2023/09/05 05:56:56;;;;;;;3.00;2.03;;;17.30;99.90;17.70;101521.00;;;;5022022;27;107578;-65
2023/09/05 05:59:26;;;;;;;4.18;1.55;;;17.50;99.90;18.00;101526.00;;;;5022644;27;89106;-65
2023/09/05 06:01:52;;;;;;;1.27;1.08;;;17.70;99.90;18.20;101520.00;;;;5023166;27;88198;-65
2023/09/05 06:04:19;;;;;;;1.42;1.27;;;18.00;99.90;18.50;101526.00;;;;5024556;27;89649;-65
2023/09/05 06:06:49;;;;;;;1.08;0.98;;;18.30;99.90;18.80;101529.00;;;;5025028;27;87687;-65
2023/09/05 06:09:17;;;;;;;1.08;0.90;;;18.50;99.90;19.10;101535.00;;;;5004192;27;89235;-65
2023/09/05 06:11:42;;;;;;;1.23;1.13;;;18.80;99.90;19.30;101532.00;;;;5029383;27;88779;-64
2023/09/05 06:14:08;;;;;;;2.80;1.90;;;19.00;99.90;19.60;101532.00;;;;5024124;27;87950;-66
2023/09/05 06:16:34;;;;;;;2.05;0.85;;;19.30;99.90;19.80;101527.00;;;;5026841;27;109441;-66
2023/09/05 06:18:59;;;;;;;2.08;1.55;;;19.50;99.90;20.00;101541.00;;;;5023825;27;118278;-66
2023/09/05 06:21:25;;;;;;;0.90;0.90;;;19.80;99.90;20.20;101538.00;;;;5023665;27;117515;-66
2023/09/05 06:23:51;;;;;;;1.33;1.02;;;20.00;99.90;20.50;101537.00;;;;5021939;27;87978;-65
2023/09/05 06:26:16;;;;;;;1.00;1.00;;;20.20;99.90;20.70;101538.00;;;;5023681;27;105359;-65
2023/09/05 06:28:42;;;;;;;1.02;0.88;;;20.40;99.90;21.00;101544.00;;;;5027217;27;117706;-66
2023/09/05 06:31:08;;;;;;;0.75;0.75;;;20.70;99.90;21.30;101541.00;;;;5025203;27;117659;-65
2023/09/05 06:33:33;;;;;;;1.25;1.15;;;21.00;99.90;21.50;101543.00;;;;5021635;27;111789;-65
2023/09/05 06:36:08;;;;;;;1.13;0.75;;;21.20;99.90;21.70;101541.00;;;;5023951;27;109567;-66
2023/09/05 06:38:33;;;;;;;0.80;0.77;;;21.40;99.90;21.80;101542.00;;;;5026908;27;87713;-65
2023/09/05 06:41:07;;;;;;;4.43;1.33;;;21.60;99.90;22.00;101548.00;;;;5024938;27;88631;-65
2023/09/05 06:43:36;;;;;;;1.05;0.73;;;21.70;99.90;22.20;101539.00;;;;5027823;27;87664;-66
2023/09/05 06:46:07;;;;;;;1.75;0.90;;;21.90;99.90;22.30;101535.00;;;;5022976;27;87969;-65
2023/09/05 06:48:38;;;;;;;0.90;0.75;;;22.10;99.90;22.50;101541.00;;;;5027089;27;92201;-66
2023/09/05 06:51:04;;;;;;;2.67;0.90;;;22.30;99.90;22.80;101547.00;;;;5023691;27;88280;-66
2023/09/05 06:53:31;;;;;;;1.02;0.95;;;22.50;99.90;23.00;101543.00;;;;5028612;27;87911;-66
2023/09/05 06:55:57;;;;;;;1.20;0.93;;;22.70;99.90;23.10;101548.00;;;;5023836;27;87981;-66
2023/09/05 06:58:24;;;;;;;1.42;0.73;;;22.80;99.90;23.20;101547.00;;;;5021511;27;106804;-66
2023/09/05 07:00:54;;;;;;;0.93;0.55;;;22.90;99.10;23.20;101551.00;;;;5027620;27;89008;-65
2023/09/05 07:03:22;;;;;;;0.65;0.52;;;23.00;97.40;23.20;101559.00;;;;5024037;27;88185;-65
2023/09/05 07:05:47;;;;;;;1.20;0.63;;;23.00;97.40;23.30;101562.00;;;;5024702;27;87759;-65
2023/09/05 07:08:13;;;;;;;1.38;1.00;;;23.10;95.50;23.20;101550.00;;;;5023226;27;116671;-65
2023/09/05 07:10:39;;;;;;;0.98;0.70;;;23.00;95.40;23.30;101550.00;;;;5027447;27;102378;-65
2023/09/05 07:13:04;;;;;;;0.73;0.73;;;23.10;95.00;23.30;101553.00;;;;5021356;27;95882;-65
2023/09/05 07:15:30;;;;;;;1.85;1.05;;;23.20;94.70;23.40;101550.00;;;;5026752;27;87346;-66
2023/09/05 07:17:56;;;;;;;1.10;0.63;;;23.20;94.50;23.50;101556.00;;;;5024821;27;118453;-67
2023/09/05 07:20:22;;;;;;;1.35;0.93;;;23.30;94.80;23.70;101564.00;;;;5027996;27;88503;-65
2023/09/05 07:22:48;;;;;;;1.77;1.00;;;23.50;94.10;23.80;101557.00;;;;5020422;27;88786;-66
2023/09/05 07:25:13;;;;;;;1.83;0.75;;;23.60;92.90;23.90;101561.00;;;;5022540;27;87837;-66
2023/09/05 07:27:40;;;;;;;1.08;0.70;;;23.70;92.30;24.00;101564.00;;;;5031003;27;95793;-67
2023/09/05 07:30:07;;;;;;;1.35;0.98;;;23.80;92.10;24.10;101562.00;;;;5024409;27;87684;-66
2023/09/05 07:32:32;;;;;;;0.70;0.70;;;23.90;91.60;24.20;101557.00;;;;5029749;27;98794;-66
2023/09/05 07:34:58;;;;;;;1.85;0.90;;;24.00;91.40;24.40;101564.00;;;;5025246;27;88050;-67
2023/09/05 07:37:24;;;;;;;0.68;0.68;;;24.10;90.80;24.50;101566.00;;;;5026828;27;111410;-65
2023/09/05 07:39:51;;;;;;;0.57;0.52;;;24.20;90.90;24.70;101555.00;;;;5023677;27;117178;-66
2023/09/05 07:42:17;;;;;;;0.50;0.50;;;24.40;90.60;24.80;101561.00;;;;5023584;27;87903;-66
2023/09/05 07:44:43;;;;;;;0.88;0.50;;;24.60;89.70;24.90;101559.00;;;;5023716;27;100184;-66
2023/09/05 07:47:09;;;;;;;1.00;0.50;;;24.70;86.40;24.90;101561.00;;;;5025895;27;118091;-66
2023/09/05 07:49:40;;;;;;;3.15;1.08;;;24.70;86.40;25.00;101558.00;;;;5021430;27;119427;-66
2023/09/05 07:52:07;;;;;;;0.70;0.45;;;24.80;85.20;25.00;101555.00;;;;5025710;27;87719;-67
2023/09/05 07:54:33;;;;;;;1.73;0.88;;;24.80;84.70;25.20;101553.00;;;;5024596;27;108530;-66
2023/09/05 07:56:59;;;;;;;1.23;0.75;;;24.90;85.50;25.40;101559.00;;;;5026561;27;88893;-66
2023/09/05 07:59:25;;;;;;;0.73;0.50;;;25.10;83.50;25.50;101561.00;;;;5025268;27;88893;-66
2023/09/05 08:01:51;;;;;;;1.05;0.73;;;25.30;82.90;25.70;101559.00;;;;5020727;27;94442;-66
2023/09/05 08:04:16;;;;;;;1.15;0.55;;;25.40;81.70;25.80;101558.00;;;;5026158;27;110062;-66
2023/09/05 08:06:42;;;;;;;1.88;0.85;;;25.50;79.00;25.90;101556.00;;;;5021866;27;118442;-66
2023/09/05 08:09:08;;;;;;;0.47;0.47;;;25.50;79.00;26.10;101555.00;;;;5024132;27;103877;-65
2023/09/05 08:11:34;;;;;;;1.10;0.73;;;25.80;78.90;26.20;101560.00;;;;5023452;27;110035;-67
2023/09/05 08:13:59;;;;;;;1.02;0.35;;;26.00;76.90;26.30;101568.00;;;;5026139;27;87899;-67
2023/09/05 08:16:25;;;;;;;0.98;0.65;;;26.10;75.40;26.30;101567.00;;;;5022878;27;117414;-67
2023/09/05 08:18:51;;;;;;;0.82;0.70;;;26.10;73.30;26.30;101565.00;;;;5027521;27;98850;-65
2023/09/05 08:21:18;;;;;;;0.73;0.60;;;26.20;72.60;26.40;101561.00;;;;5022611;27;108763;-66
2023/09/05 08:23:44;;;;;;;1.45;0.75;;;26.20;72.20;26.50;101562.00;;;;5030101;27;90523;-66
2023/09/05 08:26:11;;;;;;;0.82;0.57;;;26.30;70.30;26.40;101559.00;;;;5025199;27;88727;-66
2023/09/05 08:28:42;;;;;;;0.57;0.57;;;26.30;68.70;26.40;101561.00;;;;5026973;27;87652;-66
2023/09/05 08:31:08;;;;;;;0.65;0.52;;;26.20;68.10;26.30;101571.00;;;;5029351;27;87703;-66
2023/09/05 08:33:34;;;;;;;1.80;0.88;;;26.20;68.20;26.30;101582.00;;;;5029996;27;101853;-66
2023/09/05 08:36:00;;;;;;;0.57;0.50;;;26.20;67.10;26.30;101573.00;;;;5024455;27;118852;-66
2023/09/05 08:38:25;;;;;;;1.13;0.82;;;26.10;67.20;26.40;101576.00;;;;5030394;27;118783;-67
2023/09/05 08:40:51;;;;;;;0.75;0.50;;;26.20;66.60;26.50;101568.00;;;;5027011;27;111076;-65
2023/09/05 08:43:17;;;;;;;1.23;0.70;;;26.20;65.60;26.60;101573.00;;;;5025112;27;89957;-66
2023/09/05 08:45:48;;;;;;;0.65;0.55;;;26.30;64.30;26.80;101573.00;;;;5029287;27;88088;-65
2023/09/05 08:48:14;;;;;;;0.75;0.65;;;26.40;64.30;26.80;101575.00;;;;5009529;27;117462;-66
2023/09/05 08:50:41;;;;;;;0.60;0.60;;;26.50;61.70;26.60;101574.00;;;;5027047;27;87986;-67
2023/09/05 08:53:14;;;;;;;0.68;0.60;;;26.40;61.70;26.50;101576.00;;;;5030385;27;87201;-66
2023/09/05 08:55:41;;;;;;;1.35;0.57;;;26.30;61.70;26.40;101563.00;;;;5027097;27;88952;-66
2023/09/05 08:58:14;;;;;;;1.60;0.80;;;26.20;61.20;26.30;101561.00;;;;5029612;27;87854;-66
2023/09/05 09:00:40;;;;;;;0.60;0.45;;;26.10;61.70;26.30;101567.00;;;;5012632;27;88713;-66
2023/09/05 09:03:08;;;;;;;0.50;0.43;;;26.00;63.10;26.60;101564.00;;;;5025422;27;107387;-65
2023/09/05 09:05:36;;;;;;;1.13;0.63;;;26.20;62.90;26.60;101560.00;;;;5028101;27;87946;-65
2023/09/05 09:08:03;;;;;;;2.83;0.70;;;26.30;61.40;26.60;101564.00;;;;5028947;27;87818;-67
2023/09/05 09:10:29;;;;;;;2.88;0.77;;;26.30;61.10;26.60;101564.00;;;;5022137;27;101429;-66
2023/09/05 09:13:18;;;;;;;0.80;0.63;;;26.30;61.40;26.60;101560.00;;;;5028071;27;108163;-66
2023/09/05 09:15:44;;;;;;;1.65;0.85;;;26.30;60.40;26.70;101562.00;;;;5008254;27;87951;-66
2023/09/05 09:18:14;;;;;;;0.52;0.52;;;26.30;60.10;26.60;101548.00;;;;5026063;27;89193;-66
2023/09/05 09:20:49;;;;;;;0.70;0.70;;;26.30;60.70;26.70;101550.00;;;;5024436;27;87906;-66
2023/09/05 09:23:28;;;;;;;3.05;0.60;;;26.50;61.10;26.80;101550.00;;;;5029046;27;87949;-67
2023/09/05 09:25:57;;;;;;;0.70;0.52;;;26.40;60.70;26.90;101553.00;;;;5026225;27;89840;-69
2023/09/05 09:28:28;;;;;;;1.10;0.43;;;26.50;60.90;26.90;101547.00;;;;5024343;27;89426;-66
2023/09/05 09:31:01;;;;;;;2.03;0.70;;;26.60;58.90;26.80;101546.00;;;;5031199;27;88122;-68
2023/09/05 09:33:29;;;;;;;0.52;0.52;;;26.50;59.40;26.90;101547.00;;;;5028553;27;87911;-67
2023/09/05 09:36:13;;;;;;;1.33;0.90;;;26.60;60.00;27.10;101537.00;;;;5028803;27;88515;-67
2023/09/05 09:38:39;;;;;;;1.63;0.77;;;26.70;59.90;27.20;101536.00;;;;5010521;27;90083;-68
2023/09/05 09:41:06;;;;;;;0.73;0.73;;;26.70;58.90;27.10;101533.00;;;;5024118;27;109919;-68
2023/09/05 09:43:35;;;;;;;1.10;0.70;;;26.70;58.90;27.10;101526.00;;;;5005049;27;87157;-68
2023/09/05 09:46:06;;;;;;;1.25;0.70;;;26.80;58.60;27.10;101530.00;;;;5025589;27;88206;-67
2023/09/05 09:48:36;;;;;;;1.55;0.60;;;26.70;58.60;27.20;101525.00;;;;4998526;27;89760;-68
2023/09/05 09:51:05;;;;;;;1.40;0.85;;;26.80;58.80;27.40;101508.00;;;;5020241;27;88698;-67
2023/09/05 09:53:38;;;;;;;0.50;0.50;;;26.80;58.30;27.40;101520.00;;;;5023928;27;87935;-68
2023/09/05 09:56:13;;;;;;;0.60;0.43;;;26.90;57.70;27.40;101525.00;;;;5013327;27;87718;-69
2023/09/05 09:58:42;;;;;;;3.85;1.20;;;26.90;57.70;27.30;101523.00;;;;5025469;27;87959;-68
2023/09/05 10:01:13;;;;;;;1.23;0.63;;;26.90;57.40;27.30;101524.00;;;;5024362;27;87740;-68
2023/09/05 10:03:41;;;;;;;7.10;1.00;;;26.90;57.80;27.40;101531.00;;;;5028602;27;92218;-69
2023/09/05 10:06:08;;;;;;;1.10;0.75;;;26.90;57.90;27.70;101525.00;;;;5010038;27;89244;-69
2023/09/05 10:08:35;;;;;;;2.78;0.73;;;27.10;57.20;27.80;101523.00;;;;5028965;27;88083;-70
2023/09/05 10:11:02;;;;;;;0.70;0.50;;;27.30;56.50;27.70;101534.00;;;;5028226;27;87745;-69
2023/09/05 10:13:32;;;;;;;1.02;0.98;;;27.40;56.40;27.80;101529.00;;;;5027608;27;87580;-68
2023/09/05 10:16:01;;;;;;;1.15;0.98;;;27.30;56.50;27.90;101525.00;;;;5024764;27;89054;-66
2023/09/05 10:18:29;;;;;;;0.60;0.60;;;27.40;56.70;28.00;101517.00;;;;5029364;27;88956;-68
2023/09/05 10:20:56;;;;;;;1.67;0.75;;;27.50;56.80;28.10;101516.00;;;;5025360;27;88023;-67
2023/09/05 10:23:23;;;;;;;0.95;0.60;;;27.60;56.80;28.20;101511.00;;;;5025014;27;88242;-67
2023/09/05 10:25:51;;;;;;;0.80;0.70;;;27.70;56.60;28.40;101508.00;;;;5023258;27;89266;-68
2023/09/05 10:28:18;;;;;;;0.95;0.85;;;27.80;56.50;28.60;101514.00;;;;5001972;27;87789;-67
2023/09/05 10:30:50;;;;;;;1.45;0.90;;;28.00;55.60;28.60;101507.00;;;;5021469;27;104331;-68
2023/09/05 10:33:17;;;;;;;0.52;0.52;;;28.10;55.10;28.70;101499.00;;;;5024450;27;88327;-69
2023/09/05 10:35:44;;;;;;;1.00;0.77;;;28.20;55.40;28.80;101509.00;;;;5025318;27;88465;-67
2023/09/05 10:38:12;;;;;;;0.82;0.55;;;28.30;55.40;28.90;101509.00;;;;5026545;27;88902;-69
2023/09/05 10:40:42;;;;;;;0.77;0.77;;;28.40;55.00;29.00;101507.00;;;;5024034;27;88970;-68
2023/09/05 10:43:15;;;;;;;0.60;0.50;;;28.40;55.10;29.10;101497.00;;;;5026534;27;88130;-69
2023/09/05 10:45:41;;;;;;;1.05;0.60;;;28.50;54.90;29.30;101503.00;;;;5027524;27;88256;-68